Midway, New Mexico
Current Conditions -  °F | °C
As of 1:51 AM on Wednesday 26 Nov 2014 (Local Time) from KROW Reporting Station
Clear Clear  
Wind Chill: 29°   Ceiling: Unl
Heat Index: 33°   Visibility: 10mi
Dew Point: 16°   Wind: 5mph
Humidity: 50%   Direction: 170°S
Pressure: 30.15"   Gusts: NA
Location:  33.2058°N, 104.522°W
Report Text: KROW 260851Z AUTO 17004KT 10SM CLR 01/M09 A3015 RMK AO2 SLP189 T00061089 55001
Loading
Personal Weather Stations






























Interactive Weather Map New forecast layout! Learn more

10-Day Weather Forecast

Advertisements
Track Severe Weather on mobile